Llano, California
Current Conditions -  °F | °C
As of 5:55 AM on Friday 31 Oct 2014 (Local Time) from KGXA Reporting Station
Clear Clear  
Wind Chill: 44°   Ceiling: Unl
Heat Index: 47°   Visibility: 10mi
Dew Point: 33°   Wind: 6mph
Humidity: 58%   Direction: 150°SSE
Pressure: 29.95"   Gusts: NA
Location:  34.5°N, 117.79°W
Report Text: KGXA 311255Z AUTO 15005KT 10SM CLR 08/00 A2995 RMK AO2 SLP134 T00810003 TSNO $
Loading
Personal Weather Stations






























Interactive Weather Map
Tropical Storm Tracking
New forecast layout! Learn more

10-Day Weather Forecast

Advertisements
Track Severe Weather on mobile